Time;durP1;ratioP1;P1;durP2;ratioP2;P2;SDS_P1;SDS_P2;PMS_P1;PMS_P2;Temp;Humidity;BMP_temperature;BMP_pressure;BME280_temperature;BME280_humidity;BME280_pressure;Samples;Min_cycle;Max_cycle;Signal;HPM_P1;HPM_P2
2022/08/13 00:00:32;;;;;;;4.47;3.73;;;;;;;;;;5053797;28;20480;-50
2022/08/13 00:03:02;;;;;;;6.00;4.90;;;;;;;;;;5067259;28;20765;-50
2022/08/13 00:05:28;;;;;;;12.10;4.20;;;;;;;;;;5074325;28;20405;-51
2022/08/13 00:07:54;;;;;;;4.67;4.27;;;;;;;;;;5074044;28;20431;-52
2022/08/13 00:10:33;;;;;;;2.47;1.80;;;;;;;;;;5073559;28;20439;-51
2022/08/13 00:13:03;;;;;;;2.60;1.73;;;;;;;;;;5074295;28;20455;-50
2022/08/13 00:15:29;;;;;;;2.03;1.93;;;;;;;;;;5055407;28;20424;-50
2022/08/13 00:17:57;;;;;;;2.30;2.10;;;;;;;;;;5054014;28;20416;-51
2022/08/13 00:20:25;;;;;;;2.40;2.20;;;;;;;;;;5053300;28;20392;-51
2022/08/13 00:22:51;;;;;;;3.20;1.77;;;;;;;;;;5054085;28;20389;-50
2022/08/13 00:25:19;;;;;;;2.00;1.90;;;;;;;;;;5054064;28;20783;-51
2022/08/13 00:27:47;;;;;;;2.10;2.00;;;;;;;;;;5063752;28;20423;-50
2022/08/13 00:30:15;;;;;;;6.70;1.80;;;;;;;;;;5072497;28;20405;-50
2022/08/13 00:32:42;;;;;;;2.17;1.97;;;;;;;;;;5073684;28;20509;-50
2022/08/13 00:35:08;;;;;;;1.80;1.70;;;;;;;;;;5073692;28;20489;-51
2022/08/13 00:37:36;;;;;;;2.33;1.60;;;;;;;;;;5073392;28;20424;-52
2022/08/13 00:40:02;;;;;;;2.40;1.50;;;;;;;;;;5073089;28;20900;-51
2022/08/13 00:42:29;;;;;;;3.87;2.00;;;;;;;;;;5073764;28;20426;-50
2022/08/13 00:44:55;;;;;;;2.57;2.10;;;;;;;;;;5062408;28;20432;-51
2022/08/13 00:50:06;;;;;;;5.57;2.60;;;;;;;;;;5073567;28;20398;-50
2022/08/13 00:52:33;;;;;;;8.50;5.70;;;;;;;;;;5073518;28;20391;-50
2022/08/13 00:55:00;;;;;;;2.80;2.60;;;;;;;;;;5073532;28;20918;-51
2022/08/13 00:57:30;;;;;;;5.43;3.70;;;;;;;;;;5073096;28;20439;-50
2022/08/13 00:59:57;;;;;;;4.83;2.53;;;;;;;;;;5072635;28;20815;-51
2022/08/13 01:02:24;;;;;;;4.93;4.53;;;;;;;;;;5072501;28;20407;-50
2022/08/13 01:04:50;;;;;;;3.33;2.23;;;;;;;;;;5072756;28;20406;-51
2022/08/13 01:07:18;;;;;;;1.97;1.87;;;;;;;;;;5072882;28;20424;-52
2022/08/13 01:09:44;;;;;;;2.13;1.93;;;;;;;;;;5070887;28;20418;-50
2022/08/13 01:12:11;;;;;;;1.93;1.80;;;;;;;;;;5073186;28;20414;-50
2022/08/13 01:14:37;;;;;;;4.43;2.53;;;;;;;;;;5067406;28;20471;-52
2022/08/13 01:17:04;;;;;;;2.10;2.00;;;;;;;;;;5052952;28;20450;-50
2022/08/13 01:19:34;;;;;;;2.10;1.90;;;;;;;;;;5052563;28;20507;-50
2022/08/13 01:22:01;;;;;;;4.43;2.40;;;;;;;;;;5052692;28;20400;-50
2022/08/13 01:24:28;;;;;;;5.10;1.90;;;;;;;;;;5052988;28;20504;-50
2022/08/13 01:26:54;;;;;;;2.30;2.10;;;;;;;;;;5052073;28;20432;-50
2022/08/13 01:29:20;;;;;;;2.33;2.03;;;;;;;;;;5052196;28;20402;-50
2022/08/13 01:31:46;;;;;;;2.00;1.90;;;;;;;;;;5052090;28;20748;-50
2022/08/13 01:34:14;;;;;;;2.03;1.83;;;;;;;;;;5052699;28;20456;-50
2022/08/13 01:36:40;;;;;;;2.23;2.03;;;;;;;;;;5052286;28;20547;-50
2022/08/13 01:39:07;;;;;;;1.97;1.87;;;;;;;;;;5052255;28;20426;-52
2022/08/13 01:41:34;;;;;;;2.30;2.10;;;;;;;;;;5051947;28;20393;-50
2022/08/13 01:44:04;;;;;;;2.17;1.97;;;;;;;;;;5052484;28;20411;-50
2022/08/13 01:50:28;;;;;;;2.40;2.20;;;;;;;;;;5052093;28;20457;-50
2022/08/13 01:52:01;;;;;;;3.00;1.83;;;;;;;;;;5051004;28;20782;-50
2022/08/13 01:54:28;;;;;;;2.17;1.97;;;;;;;;;;5052720;28;20475;-50
2022/08/13 01:56:56;;;;;;;7.30;2.00;;;;;;;;;;5052513;28;20441;-50
2022/08/13 01:59:22;;;;;;;4.03;2.30;;;;;;;;;;5051833;28;20832;-50
2022/08/13 02:01:47;;;;;;;2.23;2.03;;;;;;;;;;5052113;28;20395;-50
2022/08/13 02:04:13;;;;;;;3.90;3.00;;;;;;;;;;5052247;28;20421;-50
2022/08/13 02:06:40;;;;;;;3.07;2.53;;;;;;;;;;5051962;28;20425;-50
2022/08/13 02:09:07;;;;;;;3.20;2.10;;;;;;;;;;5051693;28;20491;-52
2022/08/13 02:11:34;;;;;;;2.73;2.43;;;;;;;;;;5051583;28;20462;-50
2022/08/13 02:14:03;;;;;;;2.63;2.43;;;;;;;;;;5051993;28;20487;-50
2022/08/13 02:16:30;;;;;;;2.60;2.50;;;;;;;;;;5051336;28;20823;-50
2022/08/13 02:18:56;;;;;;;3.03;2.20;;;;;;;;;;5051685;28;20815;-50
2022/08/13 02:21:22;;;;;;;1.90;1.80;;;;;;;;;;5050864;28;20410;-50
2022/08/13 02:23:58;;;;;;;2.90;2.70;;;;;;;;;;5051621;28;20918;-50
2022/08/13 02:26:27;;;;;;;2.40;2.30;;;;;;;;;;5051852;28;20886;-50
2022/08/13 02:28:54;;;;;;;3.43;2.60;;;;;;;;;;5051577;28;20410;-50
2022/08/13 02:31:21;;;;;;;3.80;2.40;;;;;;;;;;5053121;28;20409;-52
2022/08/13 02:33:47;;;;;;;6.60;2.30;;;;;;;;;;5071864;28;20982;-50
2022/08/13 02:36:13;;;;;;;5.03;2.50;;;;;;;;;;5071789;28;20409;-52
2022/08/13 02:38:40;;;;;;;2.40;2.20;;;;;;;;;;5071556;28;20400;-50
2022/08/13 02:43:51;;;;;;;2.33;2.17;;;;;;;;;;5072089;28;20414;-50
2022/08/13 02:46:21;;;;;;;2.40;2.27;;;;;;;;;;5069844;28;20518;-50
2022/08/13 02:48:47;;;;;;;2.17;2.07;;;;;;;;;;5070368;28;20521;-50
2022/08/13 02:51:13;;;;;;;2.47;2.37;;;;;;;;;;5070844;28;20438;-51
2022/08/13 02:53:40;;;;;;;2.70;2.50;;;;;;;;;;5071655;28;20980;-50
2022/08/13 02:56:08;;;;;;;2.33;2.03;;;;;;;;;;5071625;28;20401;-51
2022/08/13 02:58:36;;;;;;;2.53;2.33;;;;;;;;;;5071336;28;20424;-51
2022/08/13 03:01:02;;;;;;;2.67;2.47;;;;;;;;;;5070700;28;20399;-50
2022/08/13 03:03:31;;;;;;;5.27;2.57;;;;;;;;;;5071462;28;20442;-51
2022/08/13 03:05:57;;;;;;;4.63;2.43;;;;;;;;;;5071450;28;20378;-50
2022/08/13 03:08:23;;;;;;;2.50;2.30;;;;;;;;;;5071368;28;20398;-51
2022/08/13 03:10:50;;;;;;;2.80;2.57;;;;;;;;;;5070621;28;20916;-50
2022/08/13 03:13:23;;;;;;;2.10;2.00;;;;;;;;;;5054924;28;20798;-50
2022/08/13 03:15:53;;;;;;;2.83;2.43;;;;;;;;;;5061881;28;20458;-50
2022/08/13 03:18:19;;;;;;;2.90;2.27;;;;;;;;;;5071210;28;20490;-49
2022/08/13 03:20:45;;;;;;;2.83;2.37;;;;;;;;;;5070460;28;20404;-50
2022/08/13 03:23:11;;;;;;;2.67;2.47;;;;;;;;;;5071484;28;20410;-50
2022/08/13 03:25:37;;;;;;;2.73;2.53;;;;;;;;;;5071409;28;20408;-50
2022/08/13 03:28:04;;;;;;;3.13;2.93;;;;;;;;;;5071762;28;20499;-50
2022/08/13 03:30:34;;;;;;;4.50;2.57;;;;;;;;;;5070276;28;20448;-50
2022/08/13 03:33:07;;;;;;;2.57;2.37;;;;;;;;;;5071256;28;20455;-50
2022/08/13 03:35:33;;;;;;;3.33;3.03;;;;;;;;;;5071305;28;20495;-50
2022/08/13 03:38:00;;;;;;;5.03;2.80;;;;;;;;;;5063753;28;20423;-50
2022/08/13 03:41:00;;;;;;;3.13;2.93;;;;;;;;;;5051890;28;20405;-50
2022/08/13 03:43:16;;;;;;;2.70;2.50;;;;;;;;;;5071186;28;20473;-51
2022/08/13 03:45:44;;;;;;;4.57;3.37;;;;;;;;;;5071164;28;20776;-51
2022/08/13 03:48:10;;;;;;;3.10;2.90;;;;;;;;;;5070908;28;20450;-50
2022/08/13 03:50:36;;;;;;;3.20;3.00;;;;;;;;;;5072619;28;20467;-50
2022/08/13 03:53:06;;;;;;;2.97;2.77;;;;;;;;;;5074716;28;20860;-50
2022/08/13 03:55:33;;;;;;;3.63;2.83;;;;;;;;;;5074698;28;20873;-50
2022/08/13 03:58:00;;;;;;;9.10;3.30;;;;;;;;;;5074231;28;20439;-50
2022/08/13 04:00:28;;;;;;;2.70;2.50;;;;;;;;;;5073866;28;20511;-50
2022/08/13 04:02:54;;;;;;;2.70;2.50;;;;;;;;;;5074469;28;20768;-50
2022/08/13 04:05:20;;;;;;;2.90;2.70;;;;;;;;;;5055426;28;20428;-49
2022/08/13 04:07:50;;;;;;;3.03;2.60;;;;;;;;;;5054251;28;20428;-50
2022/08/13 04:10:16;;;;;;;3.77;2.53;;;;;;;;;;5053660;28;20413;-50
2022/08/13 04:12:42;;;;;;;4.40;3.00;;;;;;;;;;5054218;28;20386;-50
2022/08/13 04:15:08;;;;;;;7.47;3.20;;;;;;;;;;5054309;28;20814;-50
2022/08/13 04:17:37;;;;;;;3.33;2.50;;;;;;;;;;5054024;28;20484;-49
2022/08/13 04:20:08;;;;;;;3.20;2.90;;;;;;;;;;5053567;28;20419;-49
2022/08/13 04:22:34;;;;;;;5.03;3.10;;;;;;;;;;5053980;28;20403;-50
2022/08/13 04:25:04;;;;;;;3.30;2.93;;;;;;;;;;5054231;28;20738;-50
2022/08/13 04:27:32;;;;;;;3.80;3.00;;;;;;;;;;5054105;28;20422;-49
2022/08/13 04:29:58;;;;;;;9.07;3.00;;;;;;;;;;5053285;28;20431;-50
2022/08/13 04:32:25;;;;;;;3.63;2.90;;;;;;;;;;5053896;28;20415;-49
2022/08/13 04:34:51;;;;;;;3.20;3.00;;;;;;;;;;5053980;28;20952;-50
2022/08/13 04:37:17;;;;;;;3.33;3.03;;;;;;;;;;5053775;28;20432;-50
2022/08/13 04:39:43;;;;;;;3.80;3.50;;;;;;;;;;5053081;28;20877;-53
2022/08/13 04:42:11;;;;;;;3.57;3.27;;;;;;;;;;5053663;28;20949;-49
2022/08/13 04:44:38;;;;;;;3.03;2.83;;;;;;;;;;5053824;28;20395;-49
2022/08/13 04:47:05;;;;;;;3.30;3.00;;;;;;;;;;5053705;28;20439;-49
2022/08/13 04:49:33;;;;;;;3.97;3.57;;;;;;;;;;5053376;28;20406;-51
2022/08/13 04:51:59;;;;;;;12.27;3.83;;;;;;;;;;5052863;28;20408;-49
2022/08/13 04:54:28;;;;;;;7.10;3.57;;;;;;;;;;5053584;28;20457;-50
2022/08/13 04:56:54;;;;;;;4.20;3.50;;;;;;;;;;5053224;28;20474;-50
2022/08/13 04:59:22;;;;;;;4.23;3.23;;;;;;;;;;5073269;28;20407;-49
2022/08/13 05:01:48;;;;;;;5.23;3.50;;;;;;;;;;5071884;28;20449;-50
2022/08/13 05:04:15;;;;;;;3.63;3.43;;;;;;;;;;5073115;28;20443;-50
2022/08/13 05:06:42;;;;;;;4.43;3.53;;;;;;;;;;5073352;28;20530;-51
2022/08/13 05:09:08;;;;;;;4.10;3.70;;;;;;;;;;5073002;28;20432;-51
2022/08/13 05:11:34;;;;;;;3.77;3.10;;;;;;;;;;5072779;28;20386;-49
2022/08/13 05:14:00;;;;;;;3.50;3.30;;;;;;;;;;5072926;28;20461;-49
2022/08/13 05:16:26;;;;;;;5.00;4.10;;;;;;;;;;5073118;28;20420;-50
2022/08/13 05:18:54;;;;;;;4.17;3.77;;;;;;;;;;5072765;28;20467;-50
2022/08/13 05:21:22;;;;;;;6.40;3.90;;;;;;;;;;5068574;28;20432;-50
2022/08/13 05:23:52;;;;;;;7.40;4.23;;;;;;;;;;5052926;28;20412;-50
2022/08/13 05:26:18;;;;;;;5.17;3.70;;;;;;;;;;5052997;28;20407;-50
2022/08/13 05:28:44;;;;;;;7.03;4.13;;;;;;;;;;5052705;28;20404;-50
2022/08/13 05:31:10;;;;;;;4.03;3.63;;;;;;;;;;5052275;28;20766;-50
2022/08/13 05:33:36;;;;;;;11.77;3.87;;;;;;;;;;5052543;28;20456;-50
2022/08/13 05:36:03;;;;;;;4.57;4.17;;;;;;;;;;5052947;28;20838;-50
2022/08/13 05:38:30;;;;;;;10.90;4.13;;;;;;;;;;5052638;28;20404;-49
2022/08/13 05:40:57;;;;;;;5.73;3.77;;;;;;;;;;5051949;28;20485;-51
2022/08/13 05:43:24;;;;;;;3.87;3.57;;;;;;;;;;5052568;28;20397;-49
2022/08/13 05:45:57;;;;;;;13.80;4.73;;;;;;;;;;5052583;28;20411;-49
2022/08/13 05:48:36;;;;;;;4.30;3.90;;;;;;;;;;5052616;28;20433;-49
2022/08/13 05:51:03;;;;;;;5.83;3.03;;;;;;;;;;5051937;28;20881;-49
2022/08/13 05:53:30;;;;;;;4.23;3.83;;;;;;;;;;5052246;28;20871;-50
2022/08/13 05:55:56;;;;;;;4.30;4.00;;;;;;;;;;5052433;28;20463;-49
2022/08/13 05:58:23;;;;;;;7.73;3.83;;;;;;;;;;5052021;28;20408;-49
2022/08/13 06:03:35;;;;;;;6.80;3.40;;;;;;;;;;5052483;28;20401;-49
2022/08/13 06:06:03;;;;;;;7.20;3.83;;;;;;;;;;5052339;28;20463;-49
2022/08/13 06:08:30;;;;;;;3.60;3.30;;;;;;;;;;5052088;28;20484;-49
2022/08/13 06:10:57;;;;;;;7.63;3.23;;;;;;;;;;5051325;28;20880;-49
2022/08/13 06:13:23;;;;;;;3.60;3.30;;;;;;;;;;5051590;28;20483;-49
2022/08/13 06:15:56;;;;;;;3.60;3.40;;;;;;;;;;5052179;28;20406;-49
2022/08/13 06:18:24;;;;;;;3.93;3.63;;;;;;;;;;5051970;28;20394;-49
2022/08/13 06:20:51;;;;;;;5.00;3.50;;;;;;;;;;5051362;28;20455;-49
2022/08/13 06:23:17;;;;;;;4.70;3.37;;;;;;;;;;5051857;28;20421;-49
2022/08/13 06:25:43;;;;;;;4.33;3.90;;;;;;;;;;5051908;28;20409;-50
2022/08/13 06:28:10;;;;;;;6.97;4.20;;;;;;;;;;5051552;28;20438;-51
2022/08/13 06:30:38;;;;;;;4.30;4.00;;;;;;;;;;5054565;28;20430;-49
2022/08/13 06:33:04;;;;;;;6.53;5.63;;;;;;;;;;5058689;28;20457;-50
2022/08/13 06:35:31;;;;;;;4.20;3.30;;;;;;;;;;5051596;28;20405;-50
2022/08/13 06:37:57;;;;;;;3.40;3.10;;;;;;;;;;5051480;28;20844;-50
2022/08/13 06:40:24;;;;;;;3.70;3.33;;;;;;;;;;5050939;28;20785;-49
2022/08/13 06:42:51;;;;;;;4.03;2.97;;;;;;;;;;5052121;28;20835;-50
2022/08/13 06:45:21;;;;;;;3.50;3.30;;;;;;;;;;5051536;28;20398;-50
2022/08/13 06:47:48;;;;;;;3.43;3.13;;;;;;;;;;5051548;28;20515;-51
2022/08/13 06:50:14;;;;;;;3.33;3.03;;;;;;;;;;5051226;28;20731;-49
2022/08/13 06:52:40;;;;;;;5.20;3.10;;;;;;;;;;5051541;28;20411;-49
2022/08/13 06:55:07;;;;;;;3.97;3.00;;;;;;;;;;5051478;28;20485;-49
2022/08/13 06:57:34;;;;;;;3.87;3.57;;;;;;;;;;5051336;28;20448;-49
2022/08/13 07:00:00;;;;;;;4.10;3.07;;;;;;;;;;5050880;28;20401;-51
2022/08/13 07:02:28;;;;;;;4.50;3.13;;;;;;;;;;5051706;28;20466;-50
2022/08/13 07:04:58;;;;;;;3.30;3.00;;;;;;;;;;5051450;28;20432;-49
2022/08/13 07:07:24;;;;;;;3.77;3.47;;;;;;;;;;5057583;28;20489;-49
2022/08/13 07:09:50;;;;;;;3.60;3.30;;;;;;;;;;5070758;28;20401;-49
2022/08/13 07:12:16;;;;;;;2.67;2.47;;;;;;;;;;5072090;28;20538;-50
2022/08/13 07:14:43;;;;;;;3.73;2.70;;;;;;;;;;5071374;28;20484;-50
2022/08/13 07:17:10;;;;;;;3.07;2.70;;;;;;;;;;5071459;28;20427;-51
2022/08/13 07:19:37;;;;;;;3.10;2.90;;;;;;;;;;5071127;28;20405;-50
2022/08/13 07:22:03;;;;;;;3.73;2.47;;;;;;;;;;5070679;28;20400;-50
2022/08/13 07:24:29;;;;;;;2.70;2.60;;;;;;;;;;5071953;28;20419;-50
2022/08/13 07:26:59;;;;;;;3.70;2.77;;;;;;;;;;5075190;28;20439;-50
2022/08/13 07:29:28;;;;;;;2.70;2.50;;;;;;;;;;5074948;28;20466;-50
2022/08/13 07:31:54;;;;;;;6.63;2.60;;;;;;;;;;5062640;28;20436;-50
2022/08/13 07:34:21;;;;;;;2.63;2.43;;;;;;;;;;5054980;28;20929;-50
2022/08/13 07:36:54;;;;;;;3.50;2.90;;;;;;;;;;5054978;28;20430;-50
2022/08/13 07:39:20;;;;;;;2.47;2.37;;;;;;;;;;5058109;28;20440;-50
2022/08/13 07:41:47;;;;;;;3.10;2.10;;;;;;;;;;5074327;28;20403;-50
2022/08/13 07:44:17;;;;;;;2.47;2.27;;;;;;;;;;5074913;28;20422;-50
2022/08/13 07:46:44;;;;;;;4.20;2.70;;;;;;;;;;5074593;28;20515;-50
2022/08/13 07:49:12;;;;;;;2.43;2.23;;;;;;;;;;5074642;28;20889;-51
2022/08/13 07:51:38;;;;;;;2.00;1.90;;;;;;;;;;5074176;28;20486;-50
2022/08/13 07:54:06;;;;;;;2.10;2.00;;;;;;;;;;5074667;28;20454;-50
2022/08/13 07:56:33;;;;;;;2.40;2.20;;;;;;;;;;5072854;28;20420;-50
2022/08/13 07:59:01;;;;;;;2.07;1.97;;;;;;;;;;5055289;28;20424;-51
2022/08/13 08:01:27;;;;;;;2.50;2.30;;;;;;;;;;5054277;28;20397;-50
2022/08/13 08:03:56;;;;;;;2.10;2.00;;;;;;;;;;5054587;28;20405;-51
2022/08/13 08:06:23;;;;;;;2.23;2.10;;;;;;;;;;5054478;28;20443;-50
2022/08/13 08:08:53;;;;;;;1.93;1.83;;;;;;;;;;5054129;28;20535;-50
2022/08/13 08:14:04;;;;;;;3.80;1.97;;;;;;;;;;5054584;28;20492;-51
2022/08/13 08:16:31;;;;;;;2.13;1.67;;;;;;;;;;5054098;28;20428;-51
2022/08/13 08:18:58;;;;;;;1.90;1.80;;;;;;;;;;5053935;28;20765;-51
2022/08/13 08:21:24;;;;;;;2.10;2.00;;;;;;;;;;5069316;28;20419;-50
2022/08/13 08:23:59;;;;;;;2.30;2.10;;;;;;;;;;5061338;28;20429;-51
2022/08/13 08:26:29;;;;;;;1.90;1.80;;;;;;;;;;5056291;28;20435;-51
2022/08/13 08:28:56;;;;;;;1.73;1.63;;;;;;;;;;5067212;28;20420;-51
2022/08/13 08:31:22;;;;;;;2.00;1.80;;;;;;;;;;5064912;28;20432;-51
2022/08/13 08:33:50;;;;;;;1.90;1.80;;;;;;;;;;5066650;28;20506;-50
2022/08/13 08:36:16;;;;;;;3.77;2.37;;;;;;;;;;5073551;28;20890;-50
2022/08/13 08:44:15;;;;;;;2.13;1.80;;;;;;;;;;5060762;28;20411;-51
2022/08/13 08:46:41;;;;;;;2.00;1.90;;;;;;;;;;5075678;28;20480;-51
2022/08/13 08:49:07;;;;;;;2.90;2.57;;;;;;;;;;5073450;28;21023;-51
2022/08/13 08:51:35;;;;;;;3.47;2.23;;;;;;;;;;5052533;28;20425;-50
2022/08/13 08:54:01;;;;;;;5.13;1.97;;;;;;;;;;5053773;28;20507;-51
2022/08/13 08:56:28;;;;;;;1.93;1.67;;;;;;;;;;5068137;28;20459;-51
2022/08/13 08:58:57;;;;;;;1.73;1.63;;;;;;;;;;5073215;28;20425;-51
2022/08/13 09:01:24;;;;;;;3.00;1.93;;;;;;;;;;5058522;28;20909;-51
2022/08/13 09:03:50;;;;;;;1.93;1.50;;;;;;;;;;5073210;28;20404;-51
2022/08/13 09:06:18;;;;;;;1.93;1.73;;;;;;;;;;5073218;28;20401;-51
2022/08/13 09:08:46;;;;;;;1.77;1.67;;;;;;;;;;5073272;28;20896;-51
2022/08/13 09:11:12;;;;;;;1.50;1.40;;;;;;;;;;5072306;28;20877;-51
2022/08/13 09:13:38;;;;;;;1.90;1.80;;;;;;;;;;5072922;28;20456;-51
2022/08/13 09:16:04;;;;;;;1.47;1.37;;;;;;;;;;5057728;28;20924;-51
2022/08/13 09:18:32;;;;;;;1.60;1.50;;;;;;;;;;5071323;28;20459;-51
2022/08/13 09:20:58;;;;;;;1.60;1.50;;;;;;;;;;5072181;28;20904;-51
2022/08/13 09:23:24;;;;;;;2.00;1.67;;;;;;;;;;5072716;28;20423;-51
2022/08/13 09:25:51;;;;;;;1.83;1.73;;;;;;;;;;5072900;28;20445;-51
2022/08/13 09:28:23;;;;;;;1.90;1.80;;;;;;;;;;5072688;28;20432;-51
2022/08/13 09:30:49;;;;;;;2.20;2.00;;;;;;;;;;5069534;28;20796;-51
2022/08/13 09:33:15;;;;;;;3.07;1.40;;;;;;;;;;5072524;28;20458;-51
2022/08/13 09:35:42;;;;;;;1.70;1.60;;;;;;;;;;5073098;28;20393;-51
2022/08/13 09:38:08;;;;;;;1.97;1.37;;;;;;;;;;5056256;28;20876;-51
2022/08/13 09:40:38;;;;;;;2.30;1.70;;;;;;;;;;5053362;28;20432;-51
2022/08/13 09:43:23;;;;;;;1.67;1.50;;;;;;;;;;5055801;28;20426;-51
2022/08/13 09:45:49;;;;;;;2.77;1.33;;;;;;;;;;5053562;28;20913;-51
2022/08/13 09:48:15;;;;;;;1.53;1.30;;;;;;;;;;5051731;28;20429;-51
2022/08/13 09:50:42;;;;;;;2.77;1.90;;;;;;;;;;5066993;28;20507;-50
2022/08/13 09:53:08;;;;;;;1.50;1.40;;;;;;;;;;5061866;28;20461;-51
2022/08/13 09:55:37;;;;;;;1.60;1.50;;;;;;;;;;5053345;28;20417;-51
2022/08/13 09:58:04;;;;;;;1.50;1.40;;;;;;;;;;5062797;28;20530;-51
2022/08/13 10:00:32;;;;;;;1.60;1.50;;;;;;;;;;5051610;28;20877;-51
2022/08/13 10:03:00;;;;;;;1.70;1.60;;;;;;;;;;5051107;28;20406;-50
2022/08/13 10:05:27;;;;;;;1.70;1.60;;;;;;;;;;5049030;28;20432;-51
2022/08/13 10:07:53;;;;;;;3.40;1.53;;;;;;;;;;5055634;28;20454;-50
2022/08/13 10:10:20;;;;;;;1.60;1.50;;;;;;;;;;5055025;28;20978;-50
2022/08/13 10:12:46;;;;;;;1.70;1.60;;;;;;;;;;5068930;28;20409;-50
2022/08/13 10:15:13;;;;;;;2.13;1.80;;;;;;;;;;5052024;28;20449;-50
2022/08/13 10:17:51;;;;;;;3.73;2.23;;;;;;;;;;5070606;28;20441;-52
2022/08/13 10:20:17;;;;;;;1.40;1.30;;;;;;;;;;5071141;28;20939;-51
2022/08/13 10:22:44;;;;;;;1.37;1.27;;;;;;;;;;5055781;28;20547;-51
2022/08/13 10:25:10;;;;;;;1.57;1.10;;;;;;;;;;5051883;28;20245;-51
2022/08/13 10:27:36;;;;;;;1.70;1.60;;;;;;;;;;5070155;28;20515;-51
2022/08/13 10:30:04;;;;;;;1.70;1.40;;;;;;;;;;5057118;28;20452;-51
2022/08/13 10:32:30;;;;;;;1.30;1.20;;;;;;;;;;5060309;28;20447;-51
2022/08/13 10:35:00;;;;;;;2.60;2.40;;;;;;;;;;5059890;28;20952;-51
2022/08/13 10:37:28;;;;;;;3.20;1.50;;;;;;;;;;5071682;28;20182;-51
2022/08/13 10:39:54;;;;;;;1.40;1.30;;;;;;;;;;5057622;28;20410;-51
2022/08/13 10:42:21;;;;;;;1.47;1.37;;;;;;;;;;5054591;28;20421;-50
2022/08/13 10:44:51;;;;;;;3.77;1.40;;;;;;;;;;5071105;28;20446;-52
2022/08/13 10:47:19;;;;;;;3.20;1.87;;;;;;;;;;5071204;28;20952;-52
2022/08/13 10:49:47;;;;;;;1.93;1.83;;;;;;;;;;5051922;28;20420;-51
2022/08/13 10:52:13;;;;;;;1.43;1.33;;;;;;;;;;5051479;28;20440;-50
2022/08/13 10:54:39;;;;;;;1.50;1.40;;;;;;;;;;5069617;28;20488;-51
2022/08/13 10:57:06;;;;;;;1.60;1.50;;;;;;;;;;5065702;28;20744;-51
2022/08/13 10:59:34;;;;;;;1.60;1.50;;;;;;;;;;5064156;28;20737;-51
2022/08/13 11:01:59;;;;;;;1.97;1.73;;;;;;;;;;5072708;28;20413;-51
2022/08/13 11:04:28;;;;;;;2.20;1.33;;;;;;;;;;5059066;28;20465;-51
2022/08/13 11:06:55;;;;;;;1.63;1.40;;;;;;;;;;5061885;28;20436;-51
2022/08/13 11:09:21;;;;;;;1.70;1.60;;;;;;;;;;5070076;28;20458;-51
2022/08/13 11:11:47;;;;;;;2.00;1.47;;;;;;;;;;5069529;28;20905;-50
2022/08/13 11:14:15;;;;;;;1.47;1.37;;;;;;;;;;5063037;28;20457;-51
2022/08/13 11:19:14;;;;;;;2.40;1.60;;;;;;;;;;5071639;28;20462;-51
2022/08/13 11:21:40;;;;;;;2.27;1.20;;;;;;;;;;5073552;28;20158;-51
2022/08/13 11:24:06;;;;;;;1.27;1.17;;;;;;;;;;5058991;28;20404;-51
2022/08/13 11:26:32;;;;;;;1.30;1.20;;;;;;;;;;5075151;28;20496;-51
2022/08/13 11:28:58;;;;;;;1.57;1.47;;;;;;;;;;5063183;28;20448;-51
2022/08/13 11:31:24;;;;;;;1.40;1.30;;;;;;;;;;5063025;28;20623;-51
2022/08/13 11:33:50;;;;;;;1.50;1.40;;;;;;;;;;5057747;28;20205;-52
2022/08/13 11:36:16;;;;;;;2.60;1.33;;;;;;;;;;5072712;28;20303;-51
2022/08/13 11:38:43;;;;;;;1.50;1.40;;;;;;;;;;5071089;28;20185;-51
2022/08/13 11:41:09;;;;;;;1.77;1.40;;;;;;;;;;5061734;28;20451;-51
2022/08/13 11:43:35;;;;;;;1.30;1.20;;;;;;;;;;5072338;28;20420;-51
2022/08/13 11:46:01;;;;;;;1.40;1.30;;;;;;;;;;5068230;28;20913;-51
2022/08/13 11:48:27;;;;;;;6.90;1.90;;;;;;;;;;5055038;28;20627;-52
2022/08/13 11:50:55;;;;;;;2.03;1.83;;;;;;;;;;5053922;28;20177;-51
2022/08/13 11:53:22;;;;;;;1.77;1.60;;;;;;;;;;5066870;28;20230;-51
2022/08/13 11:55:48;;;;;;;1.80;1.63;;;;;;;;;;5059283;28;21039;-51
2022/08/13 11:58:14;;;;;;;1.80;1.70;;;;;;;;;;5055755;28;20472;-52
2022/08/13 12:00:42;;;;;;;1.53;1.43;;;;;;;;;;5071083;28;20775;-52
2022/08/13 12:03:08;;;;;;;1.60;1.50;;;;;;;;;;5074258;28;20409;-51
2022/08/13 12:05:34;;;;;;;1.67;1.57;;;;;;;;;;5058844;28;20424;-51
2022/08/13 12:08:00;;;;;;;1.50;1.40;;;;;;;;;;5066565;28;20441;-51
2022/08/13 12:10:26;;;;;;;2.40;1.63;;;;;;;;;;5071108;28;20444;-52
2022/08/13 12:12:52;;;;;;;2.53;1.33;;;;;;;;;;5066280;28;20471;-51
2022/08/13 12:15:18;;;;;;;1.13;1.13;;;;;;;;;;5062175;28;20420;-51
2022/08/13 12:17:45;;;;;;;1.43;1.33;;;;;;;;;;5073729;28;20497;-51
2022/08/13 12:20:14;;;;;;;1.77;1.50;;;;;;;;;;5058272;28;20417;-51
2022/08/13 12:22:40;;;;;;;1.83;1.73;;;;;;;;;;5068963;28;20443;-51
2022/08/13 12:25:07;;;;;;;1.70;1.60;;;;;;;;;;5069893;28;20564;-52
2022/08/13 12:27:33;;;;;;;1.40;1.30;;;;;;;;;;5065588;28;20459;-52
2022/08/13 12:29:59;;;;;;;1.93;1.83;;;;;;;;;;5072617;28;20416;-52
2022/08/13 12:32:25;;;;;;;1.63;1.53;;;;;;;;;;5060313;28;20783;-53
2022/08/13 12:34:51;;;;;;;1.90;1.80;;;;;;;;;;5061881;28;20202;-51
2022/08/13 12:37:17;;;;;;;3.10;1.50;;;;;;;;;;5053851;28;20452;-52
2022/08/13 12:39:43;;;;;;;1.40;1.30;;;;;;;;;;5059641;28;20170;-51
2022/08/13 12:42:09;;;;;;;1.33;1.23;;;;;;;;;;5064215;28;20183;-51
2022/08/13 12:44:35;;;;;;;1.60;1.50;;;;;;;;;;5072980;28;20181;-51
2022/08/13 12:47:01;;;;;;;3.10;1.70;;;;;;;;;;5073211;28;20428;-51
2022/08/13 12:49:27;;;;;;;1.50;1.40;;;;;;;;;;5053850;28;20823;-51
2022/08/13 12:51:53;;;;;;;2.53;2.33;;;;;;;;;;5054184;28;20439;-53
2022/08/13 12:54:19;;;;;;;2.40;1.50;;;;;;;;;;5063489;28;20480;-51
2022/08/13 12:56:45;;;;;;;1.40;1.30;;;;;;;;;;5065731;28;20999;-52
2022/08/13 12:59:11;;;;;;;2.67;2.00;;;;;;;;;;5057015;28;20221;-52
2022/08/13 13:01:37;;;;;;;4.13;1.60;;;;;;;;;;5052031;28;20178;-51
2022/08/13 13:04:03;;;;;;;1.50;1.40;;;;;;;;;;5052987;28;20402;-53
2022/08/13 13:06:29;;;;;;;1.73;1.63;;;;;;;;;;5052053;28;20251;-53
2022/08/13 13:08:55;;;;;;;3.53;1.70;;;;;;;;;;5052095;28;20432;-51
2022/08/13 13:11:21;;;;;;;1.63;1.50;;;;;;;;;;5052655;28;20401;-51
2022/08/13 13:13:49;;;;;;;1.90;1.80;;;;;;;;;;5052934;28;20205;-51
2022/08/13 13:16:16;;;;;;;4.10;1.50;;;;;;;;;;5053065;28;20163;-51
2022/08/13 13:18:43;;;;;;;2.00;1.90;;;;;;;;;;5053471;28;20558;-51
2022/08/13 13:21:09;;;;;;;1.97;1.80;;;;;;;;;;5052430;28;20773;-51
2022/08/13 13:23:36;;;;;;;1.50;1.40;;;;;;;;;;5052289;28;20451;-51
2022/08/13 13:26:02;;;;;;;3.90;1.80;;;;;;;;;;5053077;28;20456;-52
2022/08/13 13:28:32;;;;;;;2.00;1.90;;;;;;;;;;5053133;28;20410;-52
2022/08/13 13:30:58;;;;;;;1.70;1.60;;;;;;;;;;5052318;28;20431;-52
2022/08/13 13:33:24;;;;;;;1.80;1.70;;;;;;;;;;5052961;28;20449;-51
2022/08/13 13:35:52;;;;;;;1.80;1.70;;;;;;;;;;5052898;28;20492;-51
2022/08/13 13:38:22;;;;;;;1.67;1.57;;;;;;;;;;5052880;28;20991;-51
2022/08/13 13:40:49;;;;;;;1.77;1.67;;;;;;;;;;5052151;28;20401;-51
2022/08/13 13:43:17;;;;;;;6.00;1.97;;;;;;;;;;5052851;28;20413;-52
2022/08/13 13:45:43;;;;;;;1.90;1.80;;;;;;;;;;5052634;28;20460;-52
2022/08/13 13:48:17;;;;;;;2.60;1.60;;;;;;;;;;5065181;28;20467;-52
2022/08/13 13:50:43;;;;;;;2.43;1.93;;;;;;;;;;5069648;28;20411;-51
2022/08/13 13:53:09;;;;;;;2.20;1.63;;;;;;;;;;5072435;28;20447;-53
2022/08/13 13:55:35;;;;;;;2.07;1.70;;;;;;;;;;5072429;28;20163;-53
2022/08/13 13:58:01;;;;;;;2.03;1.70;;;;;;;;;;5072217;28;20447;-52
2022/08/13 14:00:30;;;;;;;1.63;1.53;;;;;;;;;;5071982;28;20498;-53
2022/08/13 14:02:57;;;;;;;1.50;1.40;;;;;;;;;;5068318;28;20429;-52
2022/08/13 14:05:23;;;;;;;3.73;1.87;;;;;;;;;;5052316;28;20408;-51
2022/08/13 14:07:59;;;;;;;1.90;1.80;;;;;;;;;;5052016;28;20983;-52
2022/08/13 14:10:26;;;;;;;2.50;2.30;;;;;;;;;;5051439;28;20405;-52
2022/08/13 14:12:52;;;;;;;1.77;1.67;;;;;;;;;;5056766;28;20920;-51
2022/08/13 14:15:19;;;;;;;1.83;1.73;;;;;;;;;;5071305;28;20945;-52
2022/08/13 14:17:45;;;;;;;1.90;1.80;;;;;;;;;;5070505;28;20892;-51
2022/08/13 14:20:12;;;;;;;1.90;1.80;;;;;;;;;;5062934;28;20885;-53
2022/08/13 14:22:42;;;;;;;2.00;1.80;;;;;;;;;;5051029;28;20397;-52
2022/08/13 14:25:12;;;;;;;1.97;1.87;;;;;;;;;;5051917;28;20409;-52
2022/08/13 14:27:42;;;;;;;3.00;2.00;;;;;;;;;;5052008;28;20425;-52
2022/08/13 14:30:09;;;;;;;3.03;1.70;;;;;;;;;;5051140;28;20397;-51
2022/08/13 14:32:35;;;;;;;2.57;1.87;;;;;;;;;;5051867;28;20447;-52
2022/08/13 14:35:05;;;;;;;2.17;1.97;;;;;;;;;;5051437;28;20513;-52
2022/08/13 14:37:31;;;;;;;2.20;2.00;;;;;;;;;;5051745;28;20426;-52
2022/08/13 14:39:57;;;;;;;1.73;1.63;;;;;;;;;;5050526;28;20404;-51
2022/08/13 14:42:27;;;;;;;2.10;2.00;;;;;;;;;;5052247;28;20413;-52
2022/08/13 14:45:39;;;;;;;2.00;1.90;;;;;;;;;;5050964;28;20958;-52
2022/08/13 14:47:39;;;;;;;4.47;1.70;;;;;;;;;;5049063;28;20448;-53
2022/08/13 14:50:06;;;;;;;1.97;1.87;;;;;;;;;;5048890;28;20409;-52
2022/08/13 14:52:32;;;;;;;3.30;2.20;;;;;;;;;;5051157;28;20174;-52
2022/08/13 14:55:00;;;;;;;1.73;1.63;;;;;;;;;;5050325;28;20457;-52
2022/08/13 14:57:26;;;;;;;5.27;1.93;;;;;;;;;;5051516;28;20440;-51
2022/08/13 14:59:52;;;;;;;1.80;1.70;;;;;;;;;;5051032;28;20402;-52
2022/08/13 15:02:19;;;;;;;3.70;2.53;;;;;;;;;;5051567;28;20394;-52
2022/08/13 15:04:46;;;;;;;3.23;1.90;;;;;;;;;;5051696;28;20171;-54